• Join FlightAware (Why Join?)
  • Login
  • US Flag 
11:07PM EDT


 

Airport Tracker/Info


-or-


 

Live Flight TrackerFlight Track Log ✈ CPT1940 ✈ 24-Oct-2013 ✈ KCPR - KBFF

Flight Track Log - Related Links

Times and Time Zones

All times are in EDT time to prevent confusion due to time zone crossing. See the CPT1940 flight status page for this flight to view local times or setup timezone preferences in your user account.

Time Position Orientation Groundspeed Altitude Reporting Facility
EDT Latitude Longitude Course Direction KTS MPH feet Rate Location/Type
01:19PM 42.9522 -106.3892 83° East 132 152 7,700  Level Denver Center
01:20PM 42.9503 -106.3425 93° East 132 152 8,200 480 Climbing Denver Center
01:21PM 42.9450 -106.2875 97° East 131 151 8,800 360 Climbing Denver Center
01:22PM 43.0570 -106.1977 118° Southeast  Level FlightAware Approximate
01:22PM 42.9417 -106.2378 95° East 134 154 9,000  Level Denver Center
01:23PM 43.0350 -106.1404 118° Southeast  Level FlightAware Approximate
01:23PM 42.9375 -106.1692 95° East 152 175 9,000  Level Denver Center
01:24PM 42.9353 -106.1075 93° East 164 189 9,000  Level Denver Center
01:25PM 42.9311 -106.0467 95° East 168 193 9,000  Level Denver Center
01:26PM 42.9275 -105.9769 94° East 167 192 9,000  Level Denver Center
01:27PM 42.9247 -105.9211 94° East 160 184 9,000  Level Denver Center
01:28PM 42.9217 -105.8561 94° East 156 180 9,000  Level Denver Center
01:29PM 42.9119 -105.8017 104° East 155 178 9,000  Level Denver Center
01:30PM 42.8911 -105.7425 116° Southeast 154 177 9,000  Level Denver Center
01:31PM 42.8739 -105.6925 115° Southeast 154 177 9,000  Level Denver Center
01:32PM 42.8539 -105.6333 115° Southeast 153 176 9,000  Level Denver Center
01:33PM 42.8369 -105.5811 114° Southeast 155 178 9,000  Level Denver Center
01:34PM 42.8178 -105.5211 114° Southeast 155 178 9,000  Level Denver Center
01:35PM 42.8006 -105.4697 115° Southeast 156 180 9,000  Level Denver Center
01:36PM 42.7814 -105.4092 113° Southeast 156 180 9,000  Level Denver Center
01:37PM 42.7650 -105.3583 114° Southeast 155 178 9,000  Level Denver Center
01:38PM 42.7458 -105.2981 113° Southeast 155 178 9,000  Level Denver Center
01:39PM 42.7294 -105.2472 114° Southeast 154 177 9,000  Level Denver Center
01:40PM 42.7094 -105.1872 114° Southeast 155 178 9,000  Level Denver Center
01:41PM 42.6925 -105.1361 114° Southeast 155 178 9,000  Level Denver Center
01:42PM 42.6728 -105.0769 114° Southeast 155 178 9,000  Level Denver Center
01:43PM 42.6556 -105.0256 114° Southeast 155 178 9,000  Level Denver Center
01:45PM 42.6386 -104.9747 114° Southeast 155 178 9,000  Level Denver Center
01:46PM 42.6189 -104.9147 114° Southeast 156 180 9,000  Level Denver Center
01:47PM 42.6019 -104.8636 114° Southeast 155 178 9,000  Level Denver Center
01:48PM 42.5825 -104.8033 114° Southeast 157 181 9,000  Level Denver Center
01:49PM 42.5656 -104.7536 115° Southeast 155 178 9,000  Level Denver Center
01:50PM 42.5456 -104.6950 115° Southeast 154 177 9,100  Climbing Denver Center
01:51PM 42.5283 -104.6442 115° Southeast 155 178 9,100  Level Denver Center
01:52PM 42.5061 -104.5875 118° Southeast 155 178 9,100  Level Denver Center
01:53PM 42.4733 -104.5383 132° Southeast 158 182 9,100  Level Denver Center
01:54PM 42.4467 -104.4961 131° Southeast 157 181 9,100  Level Denver Center
01:55PM 42.4147 -104.4464 131° Southeast 156 180 9,100  Level Denver Center
01:56PM 42.3878 -104.4044 131° Southeast 155 178 9,100  Level Denver Center
01:57PM 42.3572 -104.3550 130° Southeast 155 178 9,100  Level Denver Center
01:58PM 42.3308 -104.3128 130° Southeast 154 177 9,100 -60 Level Denver Center
01:59PM 42.3039 -104.2697 130° Southeast 155 178 9,000 -300 Descending Denver Center
02:00PM 42.2689 -104.2178 132° Southeast 162 186 8,500 -420 Descending Denver Center
02:01PM 42.2381 -104.1706 131° Southeast 169 194 8,200 -240 Descending Denver Center
02:02PM 42.2047 -104.1181 131° Southeast 168 193 8,100 -60 Descending Denver Center
02:03PM 42.1803 -104.0750 127° Southeast 159 183 8,100  Level Denver Center
02:04PM 42.1506 -104.0278 130° Southeast 152 175 8,100  Level Denver Center
02:05PM 42.1250 -103.9872 130° Southeast 149 171 8,100  Level Denver Center
02:06PM 42.0958 -103.9386 129° Southeast 150 173 8,100  Level Denver Center
02:07PM 42.0697 -103.8986 131° Southeast 150 173 8,100  Level Denver Center